Time;durP1;ratioP1;P1;durP2;ratioP2;P2;SDS_P1;SDS_P2;PMS_P1;PMS_P2;Temp;Humidity;BMP_temperature;BMP_pressure;BME280_temperature;BME280_humidity;BME280_pressure;Samples;Min_cycle;Max_cycle;Signal;HPM_P1;HPM_P2
2020/12/24 00:00:01;;;;;;;1.48;1.27;;;12.00;1.00;;;;;;5073048;28;20020;-94
2020/12/24 00:02:26;;;;;;;1.60;1.20;;;12.10;1.00;;;;;;5055735;28;20411;-94
2020/12/24 00:04:52;;;;;;;1.38;1.25;;;12.10;1.00;;;;;;5055773;28;20029;-94
2020/12/24 00:07:18;;;;;;;2.50;1.40;;;12.10;1.00;;;;;;5070000;28;20069;-94
2020/12/24 00:09:46;;;;;;;1.80;1.30;;;12.10;1.00;;;;;;5064649;28;20476;-94
2020/12/24 00:12:14;;;;;;;2.25;1.45;;;12.20;1.00;;;;;;5060888;28;20016;-94
2020/12/24 00:14:40;;;;;;;2.55;1.70;;;12.20;1.00;;;;;;5061445;28;20028;-94
2020/12/24 00:17:06;;;;;;;3.22;1.58;;;12.20;1.00;;;;;;5041363;28;20082;-94
2020/12/24 00:19:32;;;;;;;1.70;1.60;;;12.30;1.00;;;;;;5047876;28;20036;-94
2020/12/24 00:21:57;;;;;;;2.50;1.08;;;12.30;1.00;;;;;;5055798;28;20029;-94
2020/12/24 00:24:23;;;;;;;9.30;1.50;;;11.70;1.00;;;;;;5055174;28;20481;-94
2020/12/24 00:26:49;;;;;;;1.58;1.17;;;11.40;99.90;;;;;;5055624;28;20074;-93
2020/12/24 00:29:14;;;;;;;2.00;1.10;;;11.10;58.40;;;;;;5055428;28;20025;-94
2020/12/24 00:31:40;;;;;;;3.30;0.98;;;11.00;1.00;;;;;;5055463;28;20055;-94
2020/12/24 00:34:06;;;;;;;1.40;0.93;;;11.00;1.00;;;;;;5066335;28;20493;-94
2020/12/24 00:36:32;;;;;;;3.45;1.63;;;10.90;99.90;;;;;;5075570;28;20437;-94
2020/12/24 00:38:58;;;;;;;3.10;1.10;;;10.90;99.90;;;;;;5073179;28;20034;-94
2020/12/24 00:41:24;;;;;;;4.03;1.40;;;10.70;99.90;;;;;;5055533;28;20025;-94
2020/12/24 00:43:50;;;;;;;3.47;0.80;;;10.60;99.90;;;;;;5055518;28;20025;-93
2020/12/24 00:46:17;;;;;;;2.15;1.05;;;10.50;99.90;;;;;;5055285;28;20036;-94
2020/12/24 00:48:42;;;;;;;2.08;0.93;;;10.60;99.90;;;;;;5056266;28;20021;-93
2020/12/24 00:51:08;;;;;;;1.88;0.80;;;10.60;99.90;;;;;;5060479;28;20021;-93
2020/12/24 00:53:33;;;;;;;1.20;0.70;;;10.50;99.90;;;;;;5074793;28;20054;-94
2020/12/24 00:55:59;;;;;;;1.38;0.60;;;10.60;99.90;;;;;;5070816;28;20028;-94
2020/12/24 00:58:25;;;;;;;0.85;0.55;;;10.50;99.90;;;;;;5069895;28;20031;-94
2020/12/24 01:00:50;;;;;;;2.47;0.50;;;10.40;30.00;;;;;;5061677;28;20123;-94
2020/12/24 01:03:16;;;;;;;1.23;0.60;;;10.40;17.60;;;;;;5078304;28;20487;-94
2020/12/24 01:05:42;;;;;;;2.00;0.82;;;10.40;1.00;;;;;;5061656;28;20094;-94
2020/12/24 01:08:08;;;;;;;1.48;0.60;;;10.40;1.00;;;;;;5071642;28;20120;-94
2020/12/24 01:10:34;;;;;;;0.82;0.60;;;10.50;1.00;;;;;;5058997;28;20031;-95
2020/12/24 01:12:59;;;;;;;1.08;0.57;;;10.50;1.00;;;;;;5058601;28;20123;-94
2020/12/24 01:15:25;;;;;;;2.50;0.60;;;10.50;1.00;;;;;;5069117;28;20017;-94
2020/12/24 01:17:50;;;;;;;1.13;0.50;;;10.50;1.00;;;;;;5063739;28;20047;-94
2020/12/24 01:20:16;;;;;;;1.08;0.60;;;10.50;1.00;;;;;;5078685;28;20479;-94
2020/12/24 01:22:42;;;;;;;0.80;0.60;;;10.60;1.00;;;;;;5076752;28;20032;-94
2020/12/24 01:25:07;;;;;;;1.52;1.10;;;10.70;1.00;;;;;;5078805;28;20024;-94
2020/12/24 01:27:33;;;;;;;0.70;0.68;;;10.70;1.00;;;;;;5078836;28;20016;-94
2020/12/24 01:29:59;;;;;;;1.45;0.70;;;10.70;1.00;;;;;;5078626;28;20137;-94
2020/12/24 01:32:25;;;;;;;1.27;0.30;;;10.70;1.00;;;;;;5068782;28;20016;-94
2020/12/24 01:34:51;;;;;;;1.75;1.23;;;10.70;1.00;;;;;;5054841;28;20563;-94
2020/12/24 01:37:16;;;;;;;2.60;1.88;;;10.80;1.00;;;;;;5053914;28;20123;-94
2020/12/24 01:39:42;;;;;;;2.70;1.30;;;10.80;1.00;;;;;;5068754;28;20028;-94
2020/12/24 01:42:08;;;;;;;1.35;0.85;;;10.80;1.00;;;;;;5072238;28;20515;-94
2020/12/24 01:44:33;;;;;;;1.58;0.60;;;10.90;1.00;;;;;;5062768;28;20082;-94
2020/12/24 01:46:59;;;;;;;1.08;0.70;;;11.10;1.00;;;;;;5061613;28;20020;-94
2020/12/24 01:49:25;;;;;;;1.80;0.70;;;11.10;1.00;;;;;;5058253;28;20016;-94
2020/12/24 01:51:53;;;;;;;1.10;0.50;;;11.20;1.00;;;;;;5069027;28;20021;-94
2020/12/24 01:54:21;;;;;;;0.85;0.40;;;11.30;1.00;;;;;;5058121;28;20060;-94
2020/12/24 01:56:47;;;;;;;1.90;0.43;;;11.30;1.00;;;;;;5058211;28;20093;-94
2020/12/24 01:59:16;;;;;;;1.77;0.38;;;11.30;1.00;;;;;;5057705;28;20024;-95
2020/12/24 02:01:44;;;;;;;1.85;0.40;;;11.30;1.00;;;;;;5061076;28;20054;-94
2020/12/24 02:04:10;;;;;;;1.85;0.38;;;11.20;1.00;;;;;;5078019;28;20552;-95
2020/12/24 02:06:37;;;;;;;0.57;0.30;;;11.20;1.00;;;;;;5068703;28;20039;-95
2020/12/24 02:09:04;;;;;;;1.08;0.40;;;11.20;1.00;;;;;;5057941;28;20020;-95
2020/12/24 02:11:30;;;;;;;0.77;0.47;;;11.20;1.00;;;;;;5058068;28;20051;-94
2020/12/24 02:13:55;;;;;;;0.80;0.30;;;11.20;1.00;;;;;;5057630;28;20036;-95
2020/12/24 02:16:21;;;;;;;0.63;0.40;;;11.20;1.00;;;;;;5057884;28;20055;-95
2020/12/24 02:18:46;;;;;;;0.20;0.20;;;11.20;1.00;;;;;;5057729;28;20031;-94
2020/12/24 02:21:12;;;;;;;1.67;0.30;;;11.20;1.00;;;;;;5057960;28;20473;-95
2020/12/24 02:23:37;;;;;;;1.42;0.32;;;11.20;1.00;;;;;;5057580;28;20025;-95
2020/12/24 02:26:03;;;;;;;1.48;0.30;;;11.20;1.00;;;;;;5057762;28;20048;-96
2020/12/24 02:28:29;;;;;;;2.03;0.40;;;11.30;1.00;;;;;;5057721;28;20056;-95
2020/12/24 02:30:54;;;;;;;0.80;0.32;;;11.30;1.00;;;;;;5057325;28;20127;-96
2020/12/24 02:33:20;;;;;;;0.45;0.38;;;11.30;1.00;;;;;;5057503;28;20063;-95
2020/12/24 02:35:46;;;;;;;0.40;0.32;;;11.30;1.00;;;;;;5057441;28;20072;-96
2020/12/24 02:38:11;;;;;;;1.30;0.80;;;11.30;1.00;;;;;;5057431;28;20111;-96
2020/12/24 02:40:37;;;;;;;3.53;0.80;;;11.20;1.00;;;;;;5057697;28;20028;-95
2020/12/24 02:43:02;;;;;;;3.13;1.05;;;11.20;1.00;;;;;;5057241;28;20064;-95
2020/12/24 02:45:28;;;;;;;2.38;0.60;;;11.20;1.00;;;;;;5057244;28;20115;-96
2020/12/24 02:47:54;;;;;;;4.55;0.80;;;11.10;1.00;;;;;;5057217;28;20087;-95
2020/12/24 02:50:19;;;;;;;1.33;0.57;;;11.10;1.00;;;;;;5057323;28;20601;-95
2020/12/24 02:52:47;;;;;;;1.13;0.60;;;11.10;1.00;;;;;;5057342;28;20020;-95
2020/12/24 02:55:13;;;;;;;0.90;0.60;;;11.10;1.00;;;;;;5057366;28;20025;-95
2020/12/24 02:57:38;;;;;;;0.55;0.40;;;11.10;1.00;;;;;;5057002;28;20021;-95
2020/12/24 03:00:09;;;;;;;1.45;0.60;;;11.10;1.00;;;;;;5056940;28;20020;-95
2020/12/24 03:02:34;;;;;;;0.60;0.40;;;11.10;1.00;;;;;;5056978;28;20481;-96
2020/12/24 03:05:00;;;;;;;0.70;0.50;;;11.10;1.00;;;;;;5056910;28;20028;-95
2020/12/24 03:07:26;;;;;;;0.30;0.30;;;11.20;1.00;;;;;;5056820;28;20031;-96
2020/12/24 03:09:54;;;;;;;0.50;0.40;;;11.30;1.00;;;;;;5056965;28;20025;-95
2020/12/24 03:12:21;;;;;;;0.82;0.45;;;11.30;1.00;;;;;;5056134;28;20025;-95
2020/12/24 03:14:46;;;;;;;0.40;0.40;;;11.40;1.00;;;;;;5056735;28;20044;-94
2020/12/24 03:17:12;;;;;;;1.20;0.43;;;11.40;1.00;;;;;;5056564;28;20560;-95
2020/12/24 03:19:37;;;;;;;1.98;0.60;;;11.30;1.00;;;;;;5056673;28;20063;-96
2020/12/24 03:22:03;;;;;;;1.75;0.40;;;11.20;1.00;;;;;;5056885;28;20494;-96
2020/12/24 03:24:28;;;;;;;1.15;0.47;;;11.20;1.00;;;;;;5056508;28;20105;-95
2020/12/24 03:26:54;;;;;;;0.88;0.32;;;11.30;1.00;;;;;;5056918;28;20526;-95
2020/12/24 03:29:20;;;;;;;1.45;0.50;;;11.30;1.00;;;;;;5056652;28;20025;-95
2020/12/24 03:31:45;;;;;;;1.42;0.40;;;11.20;1.00;;;;;;5056516;28;20020;-95
2020/12/24 03:34:11;;;;;;;0.45;0.35;;;11.20;1.00;;;;;;5056664;28;20020;-96
2020/12/24 03:36:37;;;;;;;0.30;0.30;;;11.20;1.00;;;;;;5056301;28;20058;-95
2020/12/24 03:39:03;;;;;;;0.43;0.40;;;11.20;1.00;;;;;;5056523;28;20020;-96
2020/12/24 03:41:32;;;;;;;1.92;0.55;;;11.20;1.00;;;;;;5056610;28;20093;-96
2020/12/24 03:43:58;;;;;;;0.47;0.47;;;11.20;1.00;;;;;;5055598;28;20059;-96
2020/12/24 03:46:23;;;;;;;0.77;0.40;;;11.20;1.00;;;;;;5056091;28;20400;-96
2020/12/24 03:48:49;;;;;;;0.63;0.50;;;11.20;1.00;;;;;;5056312;28;20016;-95
2020/12/24 03:51:14;;;;;;;0.65;0.30;;;11.20;1.00;;;;;;5056339;28;20028;-95
2020/12/24 03:53:40;;;;;;;0.82;0.52;;;11.10;1.00;;;;;;5056383;28;20032;-95
2020/12/24 03:56:06;;;;;;;1.98;1.13;;;11.10;1.00;;;;;;5056328;28;20039;-95
2020/12/24 03:58:31;;;;;;;2.65;0.73;;;11.10;1.00;;;;;;5056184;28;20024;-96
2020/12/24 04:00:57;;;;;;;2.10;0.60;;;11.20;1.00;;;;;;5056108;28;20025;-96
2020/12/24 04:03:23;;;;;;;0.75;0.40;;;11.30;1.00;;;;;;5056159;28;20021;-96
2020/12/24 04:05:48;;;;;;;1.75;0.40;;;11.30;1.00;;;;;;5056010;28;20020;-95
2020/12/24 04:08:14;;;;;;;0.90;0.40;;;11.30;1.00;;;;;;5055956;28;20024;-95
2020/12/24 04:10:40;;;;;;;0.55;0.38;;;11.10;1.00;;;;;;5056275;28;20024;-96
2020/12/24 04:13:05;;;;;;;1.10;0.57;;;11.00;1.00;;;;;;5055693;28;20048;-95
2020/12/24 04:15:31;;;;;;;2.13;0.55;;;10.90;1.00;;;;;;5055879;28;20119;-96
2020/12/24 04:17:57;;;;;;;1.77;0.50;;;10.90;1.00;;;;;;5055982;28;20094;-95
2020/12/24 04:20:22;;;;;;;3.08;0.60;;;10.90;1.00;;;;;;5055884;28;20391;-95
2020/12/24 04:22:48;;;;;;;0.60;0.40;;;10.90;1.00;;;;;;5057237;28;20077;-96
2020/12/24 04:25:14;;;;;;;1.55;0.55;;;10.90;1.00;;;;;;5060381;28;20024;-96
2020/12/24 04:27:39;;;;;;;1.65;0.50;;;10.90;1.00;;;;;;5059912;28;20017;-96
2020/12/24 04:30:05;;;;;;;0.70;0.52;;;10.90;1.00;;;;;;5059932;28;20020;-96
2020/12/24 04:35:53;;;;;;;0.57;0.45;;;10.90;1.00;;;;;;5077729;28;20067;-96
2020/12/24 04:38:19;;;;;;;0.77;0.50;;;10.90;1.00;;;;;;5059749;28;20017;-96
2020/12/24 04:40:49;;;;;;;1.65;0.50;;;10.90;1.00;;;;;;5059856;28;20025;-95
2020/12/24 04:43:16;;;;;;;0.82;0.40;;;10.90;1.00;;;;;;5059603;28;20489;-95
2020/12/24 04:45:41;;;;;;;0.50;0.50;;;10.90;1.00;;;;;;5060131;28;20057;-96
2020/12/24 04:48:09;;;;;;;1.58;0.50;;;10.90;1.00;;;;;;5059753;28;20117;-95
2020/12/24 04:50:38;;;;;;;0.60;0.47;;;10.90;1.00;;;;;;5059504;28;20025;-96
2020/12/24 04:53:06;;;;;;;0.30;0.30;;;10.90;1.00;;;;;;5059445;28;20480;-96
2020/12/24 04:55:31;;;;;;;0.40;0.40;;;10.90;1.00;;;;;;5059774;28;20028;-95
2020/12/24 04:58:00;;;;;;;1.15;0.40;;;10.90;1.00;;;;;;5059256;28;20027;-95
2020/12/24 05:00:26;;;;;;;1.58;0.40;;;10.90;1.00;;;;;;5059372;28;20028;-95
2020/12/24 05:03:20;;;;;;;1.17;0.82;;;10.90;1.00;;;;;;5059347;28;20024;-95
2020/12/24 05:05:45;;;;;;;0.98;0.50;;;10.80;1.00;;;;;;5057398;28;20032;-96
2020/12/24 05:08:11;;;;;;;2.38;0.60;;;10.60;1.00;;;;;;5059174;28;20550;-95
2020/12/24 05:10:38;;;;;;;0.80;0.60;;;10.60;1.00;;;;;;5059496;28;20059;-95
2020/12/24 05:13:18;;;;;;;2.60;0.65;;;10.60;1.00;;;;;;5059113;28;20076;-96
2020/12/24 05:15:44;;;;;;;1.55;1.00;;;10.50;1.00;;;;;;5059329;28;20024;-96
2020/12/24 05:18:23;;;;;;;2.25;1.00;;;10.50;1.00;;;;;;5059041;28;20020;-95
2020/12/24 05:20:50;;;;;;;2.03;1.00;;;10.50;1.00;;;;;;5059386;28;20035;-95
2020/12/24 05:23:17;;;;;;;3.28;1.00;;;10.40;1.00;;;;;;5059089;28;20435;-95
2020/12/24 05:25:44;;;;;;;1.58;0.85;;;10.40;1.00;;;;;;5059097;28;20025;-96
2020/12/24 05:28:23;;;;;;;1.80;0.80;;;10.40;1.00;;;;;;5058852;28;20021;-95
2020/12/24 05:30:49;;;;;;;1.25;0.75;;;10.40;1.00;;;;;;5058884;28;20021;-95
2020/12/24 05:33:51;;;;;;;1.08;0.63;;;10.30;1.00;;;;;;5058583;28;20069;-95
2020/12/24 05:36:18;;;;;;;1.90;1.00;;;10.40;1.00;;;;;;5048896;28;20043;-96
2020/12/24 05:38:45;;;;;;;1.10;1.00;;;10.30;1.00;;;;;;5058711;28;20115;-95
2020/12/24 05:41:34;;;;;;;1.85;1.33;;;10.30;1.00;;;;;;5058861;28;20039;-95
2020/12/24 05:44:11;;;;;;;1.45;1.10;;;10.30;1.00;;;;;;5058424;28;20025;-95
2020/12/24 05:46:48;;;;;;;1.48;0.95;;;10.30;1.00;;;;;;5058643;28;20069;-96
2020/12/24 05:49:22;;;;;;;1.10;0.85;;;10.40;1.00;;;;;;5058711;28;20020;-95
2020/12/24 05:55:10;;;;;;;0.90;0.63;;;10.50;1.00;;;;;;5076365;28;20031;-95
2020/12/24 06:00:58;;;;;;;2.25;0.80;;;10.50;1.00;;;;;;5076210;28;20024;-95
2020/12/24 06:03:34;;;;;;;0.88;0.80;;;10.50;1.00;;;;;;5058030;28;20024;-96
2020/12/24 06:06:04;;;;;;;1.73;0.90;;;10.50;1.00;;;;;;5058144;28;20120;-95
2020/12/24 06:08:32;;;;;;;3.08;1.10;;;10.50;1.00;;;;;;5058338;28;20113;-95
2020/12/24 06:11:08;;;;;;;1.45;1.02;;;10.60;1.00;;;;;;5057922;28;20020;-96
2020/12/24 06:13:41;;;;;;;1.58;0.60;;;10.50;1.00;;;;;;5057845;28;20050;-94
2020/12/24 06:16:12;;;;;;;1.55;0.80;;;10.60;1.00;;;;;;5057962;28;20578;-96
2020/12/24 06:18:42;;;;;;;0.52;0.50;;;10.50;1.00;;;;;;5053526;28;20036;-95
2020/12/24 06:21:16;;;;;;;4.72;0.82;;;10.50;1.00;;;;;;5057933;28;20021;-96
2020/12/24 06:24:00;;;;;;;2.28;0.73;;;10.40;1.00;;;;;;5057704;28;20036;-95
2020/12/24 06:26:35;;;;;;;1.88;0.90;;;10.40;1.00;;;;;;5057723;28;20086;-95
2020/12/24 06:29:02;;;;;;;2.03;0.70;;;10.30;1.00;;;;;;5057561;28;20064;-95
2020/12/24 06:31:29;;;;;;;1.88;1.10;;;10.30;1.00;;;;;;5057555;28;20427;-95
2020/12/24 06:33:55;;;;;;;1.95;0.70;;;10.40;1.00;;;;;;5073716;28;20107;-95
2020/12/24 06:36:35;;;;;;;1.05;0.50;;;10.50;1.00;;;;;;5077427;28;20071;-95
2020/12/24 06:39:00;;;;;;;3.17;0.47;;;10.40;1.00;;;;;;5077560;28;20068;-95
2020/12/24 06:41:40;;;;;;;3.92;1.30;;;10.50;1.00;;;;;;5077640;28;20035;-95
2020/12/24 06:44:08;;;;;;;2.55;1.58;;;10.40;1.00;;;;;;5077024;28;20522;-95
2020/12/24 06:46:58;;;;;;;1.05;0.70;;;10.40;1.00;;;;;;5076642;28;20024;-95
2020/12/24 06:49:33;;;;;;;1.58;0.82;;;10.30;1.00;;;;;;5077444;28;20026;-95
2020/12/24 06:51:59;;;;;;;2.33;0.80;;;10.50;1.00;;;;;;5077273;28;20472;-95
2020/12/24 06:54:28;;;;;;;2.70;1.05;;;10.60;1.00;;;;;;5077301;28;20034;-95
2020/12/24 06:57:19;;;;;;;3.80;0.93;;;10.60;1.00;;;;;;5077001;28;20028;-95
2020/12/24 06:59:44;;;;;;;2.85;1.20;;;10.60;1.00;;;;;;5076428;28;20020;-95
2020/12/24 07:02:24;;;;;;;3.33;1.00;;;10.60;99.90;;;;;;5077106;28;20020;-92
2020/12/24 07:04:51;;;;;;;3.47;1.10;;;10.50;99.90;;;;;;5076050;28;20024;-94
2020/12/24 07:07:42;;;;;;;2.30;1.20;;;10.40;99.90;;;;;;5056982;28;20028;-93
2020/12/24 07:10:08;;;;;;;4.40;1.10;;;10.50;1.00;;;;;;5049003;28;20036;-94
2020/12/24 07:12:34;;;;;;;3.45;1.30;;;10.50;99.90;;;;;;5055936;28;20039;-93
2020/12/24 07:15:26;;;;;;;2.78;0.90;;;10.50;1.00;;;;;;5059938;28;20059;-92
2020/12/24 07:17:52;;;;;;;3.17;1.00;;;10.60;99.90;;;;;;5045073;28;20024;-92
2020/12/24 07:20:18;;;;;;;4.85;1.40;;;10.50;1.00;;;;;;5065051;28;20036;-94
2020/12/24 07:22:46;;;;;;;4.25;0.90;;;10.30;99.90;;;;;;5056408;28;20127;-94
2020/12/24 07:25:11;;;;;;;5.00;0.95;;;10.40;99.90;;;;;;5068659;28;20514;-93
2020/12/24 07:27:53;;;;;;;4.45;0.95;;;10.30;99.90;;;;;;5073067;28;20024;-93
2020/12/24 07:30:21;;;;;;;3.13;1.08;;;10.30;1.00;;;;;;5055418;28;20434;-94
2020/12/24 07:32:58;;;;;;;3.75;1.10;;;10.30;1.00;;;;;;5056335;28;20029;-93
2020/12/24 07:35:24;;;;;;;2.35;1.00;;;10.10;1.00;;;;;;5036323;28;20021;-93
2020/12/24 07:37:50;;;;;;;3.17;1.02;;;10.20;1.00;;;;;;5036230;28;20120;-92
2020/12/24 07:40:17;;;;;;;4.88;1.25;;;10.10;1.00;;;;;;5047877;28;20108;-94
2020/12/24 07:42:43;;;;;;;4.00;1.00;;;10.20;1.00;;;;;;5055833;28;20178;-93
2020/12/24 07:45:09;;;;;;;4.20;1.20;;;10.30;99.90;;;;;;5056101;28;20112;-93
2020/12/24 07:47:35;;;;;;;2.00;0.90;;;10.30;99.90;;;;;;5056166;28;20118;-92
2020/12/24 07:50:01;;;;;;;2.63;1.30;;;10.30;99.90;;;;;;5055596;28;20113;-93
2020/12/24 07:52:27;;;;;;;4.35;1.00;;;10.20;1.00;;;;;;5055811;28;20021;-93
2020/12/24 07:54:52;;;;;;;3.83;1.00;;;10.30;1.00;;;;;;5055194;28;20086;-93
2020/12/24 07:57:22;;;;;;;2.78;1.15;;;10.20;99.90;;;;;;5064905;28;20111;-92
2020/12/24 07:59:48;;;;;;;3.78;1.20;;;10.30;1.00;;;;;;5056015;28;20024;-92
2020/12/24 08:02:13;;;;;;;3.67;1.23;;;10.30;1.00;;;;;;5055270;28;20028;-93
2020/12/24 08:04:39;;;;;;;3.60;1.25;;;10.30;99.90;;;;;;5055316;28;20036;-93
2020/12/24 08:07:05;;;;;;;4.22;1.55;;;10.30;99.90;;;;;;5055217;28;20484;-92
2020/12/24 08:09:31;;;;;;;5.47;1.10;;;10.30;1.00;;;;;;5066869;28;20020;-92
2020/12/24 08:11:58;;;;;;;6.60;1.48;;;10.20;99.90;;;;;;5057556;28;20032;-92
2020/12/24 08:14:29;;;;;;;3.90;1.30;;;10.20;1.00;;;;;;5066865;28;20044;-92
2020/12/24 08:17:24;;;;;;;4.50;1.70;;;10.20;1.00;;;;;;5046227;28;20032;-92
2020/12/24 08:19:59;;;;;;;3.88;1.50;;;10.10;1.00;;;;;;5059257;28;20476;-91
2020/12/24 08:22:50;;;;;;;3.58;1.40;;;10.10;1.00;;;;;;5087955;28;20024;-90
2020/12/24 08:25:16;;;;;;;6.15;2.20;;;10.10;1.00;;;;;;5070285;28;20055;-91
2020/12/24 08:27:46;;;;;;;7.60;1.52;;;10.20;99.90;;;;;;5073539;28;20021;-90
2020/12/24 08:30:14;;;;;;;4.55;1.33;;;10.20;1.00;;;;;;5074835;28;20028;-91
2020/12/24 08:32:40;;;;;;;3.65;1.38;;;10.20;99.90;;;;;;5072096;28;20024;-91
2020/12/24 08:35:13;;;;;;;4.35;1.85;;;10.20;99.90;;;;;;5053684;28;20075;-92
2020/12/24 08:37:40;;;;;;;5.65;2.00;;;10.20;1.00;;;;;;5054831;28;20044;-92
2020/12/24 08:40:25;;;;;;;5.22;2.20;;;10.20;1.00;;;;;;5074399;28;20039;-91
2020/12/24 08:43:00;;;;;;;4.85;1.70;;;10.20;1.00;;;;;;5057119;28;20039;-91
2020/12/24 08:45:27;;;;;;;3.88;1.80;;;10.20;99.90;;;;;;5054542;28;20090;-94
2020/12/24 08:47:52;;;;;;;7.68;2.25;;;10.30;99.90;;;;;;5055172;28;20510;-93
2020/12/24 08:50:35;;;;;;;4.35;1.77;;;10.30;99.90;;;;;;5040177;28;20025;-94
2020/12/24 08:53:05;;;;;;;5.55;2.08;;;10.30;99.90;;;;;;5054756;28;20090;-94
2020/12/24 08:55:31;;;;;;;4.15;1.25;;;10.40;99.90;;;;;;5054695;28;20086;-94
2020/12/24 08:57:57;;;;;;;4.53;1.40;;;10.40;99.90;;;;;;5060696;28;20407;-91
2020/12/24 09:00:24;;;;;;;5.97;1.50;;;10.50;99.90;;;;;;5074591;28;20020;-92
2020/12/24 09:02:50;;;;;;;6.03;1.60;;;10.50;99.90;;;;;;5061765;28;20032;-94
2020/12/24 09:05:25;;;;;;;5.15;1.60;;;10.60;99.90;;;;;;5064701;28;20028;-92
2020/12/24 09:07:52;;;;;;;5.40;1.60;;;10.60;99.90;;;;;;5039171;28;20013;-92
2020/12/24 09:10:27;;;;;;;5.47;1.45;;;10.60;99.90;;;;;;5056230;28;20036;-95
2020/12/24 09:13:03;;;;;;;4.75;1.30;;;10.60;99.90;;;;;;5088769;28;20040;-94
2020/12/24 09:15:29;;;;;;;5.85;1.40;;;10.60;99.90;;;;;;5059101;28;20032;-93
2020/12/24 09:17:57;;;;;;;5.30;1.30;;;10.60;99.90;;;;;;5060696;28;20066;-96
2020/12/24 09:20:33;;;;;;;4.95;1.52;;;10.60;99.90;;;;;;5065013;28;20035;-96
2020/12/24 09:23:02;;;;;;;4.15;1.42;;;10.70;99.90;;;;;;5070571;28;20021;-95
2020/12/24 09:25:42;;;;;;;8.73;1.75;;;10.80;99.90;;;;;;5061230;28;20032;-96
2020/12/24 09:28:37;;;;;;;4.63;1.60;;;10.90;99.90;;;;;;5062894;28;20495;-96
2020/12/24 09:31:02;;;;;;;5.82;1.45;;;10.80;99.90;;;;;;5044267;28;20486;-96
2020/12/24 09:33:28;;;;;;;7.25;2.17;;;10.90;99.90;;;;;;5063794;28;20122;-96
2020/12/24 09:35:54;;;;;;;4.55;1.90;;;11.00;99.90;;;;;;5063744;28;20611;-95
2020/12/24 09:38:21;;;;;;;6.03;2.10;;;11.00;99.90;;;;;;5071050;28;20028;-96
2020/12/24 09:40:50;;;;;;;6.43;2.30;;;11.00;99.90;;;;;;5053565;28;20047;-96
2020/12/24 09:43:16;;;;;;;7.10;2.00;;;11.00;99.90;;;;;;5062632;28;20130;-96
2020/12/24 09:45:42;;;;;;;5.25;2.00;;;11.00;99.90;;;;;;5060667;28;20393;-96
2020/12/24 09:48:08;;;;;;;4.18;1.98;;;10.90;99.90;;;;;;5060860;28;20369;-96
2020/12/24 09:50:37;;;;;;;6.20;1.80;;;11.00;99.90;;;;;;5060693;28;20028;-96
2020/12/24 09:53:03;;;;;;;4.40;1.40;;;11.00;99.90;;;;;;5047798;28;20021;-96
2020/12/24 09:55:30;;;;;;;3.55;1.30;;;11.00;99.90;;;;;;5049786;28;20039;-96
2020/12/24 09:57:56;;;;;;;3.83;1.30;;;11.00;99.90;;;;;;5062298;28;20020;-95
2020/12/24 10:00:22;;;;;;;5.35;1.42;;;11.00;99.90;;;;;;5078070;28;20124;-94
2020/12/24 10:02:47;;;;;;;4.65;1.45;;;11.10;99.90;;;;;;5079493;28;20081;-96
2020/12/24 10:05:13;;;;;;;6.25;1.25;;;11.10;99.90;;;;;;5077542;28;20028;-95
2020/12/24 10:07:39;;;;;;;5.00;1.40;;;11.10;99.90;;;;;;5078042;28;20027;-95
2020/12/24 10:10:05;;;;;;;2.72;1.02;;;11.10;99.90;;;;;;5077664;28;20114;-95
2020/12/24 10:12:31;;;;;;;4.82;1.20;;;11.10;99.90;;;;;;5056416;28;20044;-95
2020/12/24 10:14:57;;;;;;;4.68;1.38;;;11.10;99.90;;;;;;5057841;28;20086;-96
2020/12/24 10:17:23;;;;;;;4.38;1.67;;;11.10;99.90;;;;;;5058061;28;20442;-95
2020/12/24 10:19:51;;;;;;;5.78;1.50;;;11.00;99.90;;;;;;5058169;28;20033;-96
2020/12/24 10:22:24;;;;;;;2.33;1.40;;;11.00;99.90;;;;;;5068305;28;20059;-96
2020/12/24 10:24:52;;;;;;;3.22;1.15;;;11.00;99.90;;;;;;5069961;28;20064;-96
2020/12/24 10:27:18;;;;;;;2.85;1.17;;;11.10;99.90;;;;;;5071237;28;20119;-96
2020/12/24 10:29:43;;;;;;;4.22;1.10;;;11.00;99.90;;;;;;5066665;28;20032;-96
2020/12/24 10:32:09;;;;;;;5.13;1.27;;;11.10;99.90;;;;;;5067718;28;20021;-96
2020/12/24 10:34:35;;;;;;;3.50;1.30;;;11.10;99.90;;;;;;5067659;28;20028;-96
2020/12/24 10:37:01;;;;;;;3.28;1.30;;;11.10;99.90;;;;;;5067658;28;20078;-96
2020/12/24 10:39:30;;;;;;;4.72;1.42;;;11.10;99.90;;;;;;5067800;28;20028;-96
2020/12/24 10:41:56;;;;;;;5.38;1.10;;;11.10;99.90;;;;;;5065238;28;20025;-96
2020/12/24 10:44:22;;;;;;;4.63;1.30;;;11.10;99.90;;;;;;5071482;28;20021;-96
2020/12/24 10:46:48;;;;;;;4.38;1.30;;;11.00;99.90;;;;;;5061391;28;20052;-96
2020/12/24 10:49:21;;;;;;;7.45;1.40;;;11.10;99.90;;;;;;5059901;28;20017;-96
2020/12/24 10:51:47;;;;;;;5.30;1.25;;;11.00;99.90;;;;;;5080634;28;20131;-96
2020/12/24 10:54:52;;;;;;;5.15;1.33;;;11.00;99.90;;;;;;5063722;28;20128;-96
2020/12/24 10:57:17;;;;;;;4.38;1.23;;;11.00;99.90;;;;;;5066751;28;20029;-96
2020/12/24 10:59:51;;;;;;;3.10;1.00;;;11.00;99.90;;;;;;5066158;28;20027;-96
2020/12/24 11:02:30;;;;;;;3.88;1.20;;;11.00;99.90;;;;;;5058296;28;20032;-96
2020/12/24 11:04:57;;;;;;;3.53;1.20;;;11.00;99.90;;;;;;5061490;28;20087;-96
2020/12/24 11:07:26;;;;;;;2.92;1.10;;;11.00;99.90;;;;;;5124362;22;20075;-96
2020/12/24 11:09:53;;;;;;;4.80;1.50;;;11.10;99.90;;;;;;5096213;28;20081;-96
2020/12/24 11:12:19;;;;;;;3.85;1.13;;;11.20;99.90;;;;;;5080269;28;20032;-94
2020/12/24 11:14:45;;;;;;;4.93;1.50;;;11.10;99.90;;;;;;5088090;28;20024;-95
2020/12/24 11:17:10;;;;;;;4.15;1.30;;;11.10;99.90;;;;;;5081338;28;20055;-95
2020/12/24 11:19:37;;;;;;;4.10;1.63;;;11.10;99.90;;;;;;5079610;28;20031;-95
2020/12/24 11:22:03;;;;;;;3.00;1.30;;;11.20;99.90;;;;;;5077886;28;20028;-95
2020/12/24 11:24:29;;;;;;;4.32;1.45;;;11.20;99.90;;;;;;5077065;28;20169;-95
2020/12/24 11:26:54;;;;;;;4.15;1.30;;;11.10;99.90;;;;;;5076696;28;20110;-95
2020/12/24 11:29:20;;;;;;;3.50;1.10;;;11.10;99.90;;;;;;5077164;28;20479;-95
2020/12/24 11:31:46;;;;;;;6.18;1.70;;;11.10;99.90;;;;;;5076676;28;20024;-95
2020/12/24 11:34:11;;;;;;;4.22;1.00;;;11.00;99.90;;;;;;5077159;28;20055;-94
2020/12/24 11:36:37;;;;;;;5.43;1.30;;;11.00;99.90;;;;;;5076491;28;20059;-93
2020/12/24 11:39:22;;;;;;;4.70;1.33;;;11.00;99.90;;;;;;5065990;28;20602;-95
2020/12/24 11:41:48;;;;;;;4.05;1.40;;;10.90;99.90;;;;;;5044681;28;20029;-91
2020/12/24 11:44:13;;;;;;;4.25;1.60;;;10.90;99.90;;;;;;5035421;28;20032;-90
2020/12/24 11:46:39;;;;;;;2.70;1.20;;;10.90;99.90;;;;;;5053475;28;20019;-95
2020/12/24 11:49:05;;;;;;;3.75;1.20;;;10.90;99.90;;;;;;5056361;28;20086;-92
2020/12/24 11:51:30;;;;;;;4.18;1.23;;;10.90;99.90;;;;;;5056127;28;20032;-93
2020/12/24 11:53:56;;;;;;;3.55;1.00;;;10.80;99.90;;;;;;5056104;28;20035;-95
2020/12/24 11:56:23;;;;;;;5.28;1.23;;;10.80;99.90;;;;;;5052633;28;20021;-93
2020/12/24 11:58:50;;;;;;;3.45;1.23;;;10.80;99.90;;;;;;5069160;28;20715;-93
2020/12/24 12:01:21;;;;;;;4.53;1.63;;;10.90;99.90;;;;;;5069795;28;20033;-95
2020/12/24 12:03:47;;;;;;;4.20;1.10;;;10.90;99.90;;;;;;5070847;28;20036;-92
2020/12/24 12:06:13;;;;;;;5.10;1.20;;;10.80;99.90;;;;;;5069367;28;20485;-93
2020/12/24 12:08:39;;;;;;;3.95;1.40;;;10.90;99.90;;;;;;5069438;28;20052;-94
2020/12/24 12:11:06;;;;;;;6.20;1.90;;;10.90;99.90;;;;;;5072021;28;20013;-94
2020/12/24 12:13:32;;;;;;;2.53;1.20;;;10.90;99.90;;;;;;5056037;28;20062;-93
2020/12/24 12:15:58;;;;;;;2.88;1.20;;;10.90;99.90;;;;;;5056070;28;20439;-94
2020/12/24 12:18:24;;;;;;;4.40;1.25;;;10.90;99.90;;;;;;5055582;28;20033;-94
2020/12/24 12:20:51;;;;;;;3.67;1.92;;;10.90;99.90;;;;;;5055757;28;20025;-93
2020/12/24 12:23:17;;;;;;;3.40;1.10;;;11.00;99.90;;;;;;5056115;28;20057;-95
2020/12/24 12:25:42;;;;;;;3.17;1.75;;;11.00;99.90;;;;;;5055697;28;20032;-93
2020/12/24 12:28:08;;;;;;;3.97;1.17;;;11.00;99.90;;;;;;5041740;28;20029;-94
2020/12/24 12:30:35;;;;;;;3.75;1.13;;;11.00;99.90;;;;;;5069035;28;20389;-94
2020/12/24 12:33:01;;;;;;;2.90;1.10;;;10.90;99.90;;;;;;5069086;28;20070;-91
2020/12/24 12:35:28;;;;;;;3.35;1.13;;;10.90;99.90;;;;;;5069060;28;20506;-94
2020/12/24 12:37:53;;;;;;;3.05;1.15;;;10.90;99.90;;;;;;5037240;28;20044;-91
2020/12/24 12:40:22;;;;;;;6.40;1.10;;;10.90;99.90;;;;;;5046127;28;20028;-94
2020/12/24 12:42:48;;;;;;;2.88;0.88;;;10.80;99.90;;;;;;5057610;28;20031;-95
2020/12/24 12:45:13;;;;;;;5.68;1.20;;;10.80;99.90;;;;;;5057996;28;20472;-92
2020/12/24 12:47:39;;;;;;;2.92;0.77;;;10.70;99.90;;;;;;5040006;28;20115;-93
2020/12/24 12:50:08;;;;;;;2.15;0.82;;;10.70;99.90;;;;;;5050220;28;20120;-93
2020/12/24 12:52:34;;;;;;;2.60;1.00;;;10.80;99.90;;;;;;5059008;28;20112;-94
2020/12/24 12:55:00;;;;;;;1.45;0.90;;;10.70;99.90;;;;;;5057494;28;20115;-92
2020/12/24 12:57:26;;;;;;;3.42;0.80;;;10.80;99.90;;;;;;5059250;28;20387;-92
2020/12/24 12:59:51;;;;;;;6.60;1.20;;;10.80;99.90;;;;;;5043819;28;20033;-93
2020/12/24 13:02:17;;;;;;;3.08;0.80;;;10.80;99.90;;;;;;5039601;28;20056;-95
2020/12/24 13:04:43;;;;;;;2.63;1.00;;;10.80;99.90;;;;;;5039153;28;20044;-95
2020/12/24 13:07:09;;;;;;;3.33;1.15;;;10.90;99.90;;;;;;5022948;28;20547;-95